GLD1134 SBRP-SBCT
Flight info
| Callsign | GLD1134 |
|---|---|
| Flight time | N/A |
| Altitude | 26000 |
| Route | DCT ESMIV DCT ESGAS UM654 ANSOK UZ5 UMGUL DCT |
| Aircraft | B350/M-SDFGIRY/S |
Departure
| Time | N/A |
|---|---|
| Airport | Leite Lopes Airport (SBRP) |
Arrival
| Time | 2026-05-03 20:37 |
|---|---|
| Airport | Curitiba-Afonso Pena International Airport (SBCT) |
| Time | Latitude | Longitude | Altitude | Speed | Heading |
|---|---|---|---|---|---|
| 2026-05-03 20:15 | -25.32613 | -49.39243 | 9414 ft | 233 kts | 167° |
| 2026-05-03 20:15 | -25.33859 | -49.38606 | 9062 ft | 233 kts | 150° |
| 2026-05-03 20:15 | -25.35084 | -49.37438 | 8636 ft | 232 kts | 136° |
| 2026-05-03 20:15 | -25.36208 | -49.36170 | 8215 ft | 230 kts | 137° |
| 2026-05-03 20:16 | -25.37337 | -49.34926 | 7797 ft | 229 kts | 137° |
| 2026-05-03 20:16 | -25.38442 | -49.33696 | 7399 ft | 228 kts | 136° |
| 2026-05-03 20:16 | -25.39563 | -49.32444 | 6992 ft | 228 kts | 136° |
| 2026-05-03 20:16 | -25.40684 | -49.31194 | 6581 ft | 228 kts | 135° |
| 2026-05-03 20:17 | -25.41806 | -49.29964 | 6153 ft | 226 kts | 135° |
| 2026-05-03 20:17 | -25.42910 | -49.28738 | 5733 ft | 224 kts | 131° |
| 2026-05-03 20:17 | -25.43987 | -49.27510 | 5351 ft | 220 kts | 131° |
| 2026-05-03 20:17 | -25.45052 | -49.26335 | 5058 ft | 211 kts | 131° |
| 2026-05-03 20:18 | -25.46062 | -49.25185 | 4768 ft | 208 kts | 130° |
| 2026-05-03 20:18 | -25.47103 | -49.24025 | 4486 ft | 215 kts | 132° |
| 2026-05-03 20:18 | -25.48149 | -49.22847 | 4204 ft | 214 kts | 131° |
| 2026-05-03 20:18 | -25.49189 | -49.21676 | 3901 ft | 212 kts | 132° |
| 2026-05-03 20:19 | -25.50216 | -49.20538 | 3598 ft | 202 kts | 133° |
| 2026-05-03 20:19 | -25.51163 | -49.19457 | 3321 ft | 190 kts | 133° |
| 2026-05-03 20:19 | -25.52059 | -49.18467 | 3095 ft | 175 kts | 133° |
| 2026-05-03 20:19 | -25.52924 | -49.17526 | 3115 ft | 179 kts | 133° |
| 2026-05-03 20:20 | -25.53784 | -49.16534 | 3407 ft | 179 kts | 131° |
| 2026-05-03 20:20 | -25.54630 | -49.15528 | 3810 ft | 178 kts | 130° |
| 2026-05-03 20:20 | -25.55482 | -49.14507 | 3944 ft | 184 kts | 129° |
| 2026-05-03 20:20 | -25.56346 | -49.13470 | 4107 ft | 182 kts | 129° |
| 2026-05-03 20:21 | -25.57235 | -49.12468 | 4229 ft | 183 kts | 130° |
| 2026-05-03 20:21 | -25.58141 | -49.11460 | 4552 ft | 186 kts | 130° |
| 2026-05-03 20:21 | -25.59092 | -49.10488 | 5129 ft | 188 kts | 134° |
| 2026-05-03 20:21 | -25.60054 | -49.09470 | 5611 ft | 194 kts | 134° |
| 2026-05-03 20:22 | -25.61290 | -49.08801 | 6089 ft | 205 kts | 176° |
| 2026-05-03 20:22 | -25.62743 | -49.09088 | 6243 ft | 226 kts | 210° |
| 2026-05-03 20:22 | -25.63902 | -49.10318 | 6235 ft | 240 kts | 244° |
| 2026-05-03 20:22 | -25.64317 | -49.12129 | 6240 ft | 250 kts | 274° |
| 2026-05-03 20:23 | -25.63979 | -49.14041 | 6236 ft | 258 kts | 288° |
| 2026-05-03 20:23 | -25.63574 | -49.16004 | 6238 ft | 265 kts | 280° |
| 2026-05-03 20:23 | -25.63423 | -49.18021 | 6240 ft | 266 kts | 274° |
| 2026-05-03 20:23 | -25.63334 | -49.20066 | 6241 ft | 264 kts | 276° |
| 2026-05-03 20:24 | -25.63161 | -49.22072 | 6240 ft | 260 kts | 278° |
| 2026-05-03 20:24 | -25.62988 | -49.24056 | 6240 ft | 257 kts | 277° |
| 2026-05-03 20:24 | -25.62856 | -49.26029 | 6235 ft | 256 kts | 275° |
| 2026-05-03 20:24 | -25.62721 | -49.27996 | 6233 ft | 255 kts | 277° |
| 2026-05-03 20:25 | -25.62834 | -49.29948 | 6232 ft | 257 kts | 254° |
| 2026-05-03 20:25 | -25.63786 | -49.31621 | 6231 ft | 262 kts | 225° |
| 2026-05-03 20:25 | -25.65387 | -49.32604 | 6223 ft | 267 kts | 197° |
| 2026-05-03 20:25 | -25.67237 | -49.32659 | 6221 ft | 271 kts | 168° |
| 2026-05-03 20:26 | -25.68909 | -49.31741 | 6222 ft | 271 kts | 140° |
| 2026-05-03 20:26 | -25.70244 | -49.30267 | 6222 ft | 270 kts | 133° |
| 2026-05-03 20:26 | -25.71519 | -49.28770 | 6221 ft | 270 kts | 133° |
| 2026-05-03 20:26 | -25.72848 | -49.27265 | 6220 ft | 269 kts | 133° |
| 2026-05-03 20:27 | -25.73829 | -49.25532 | 6221 ft | 266 kts | 106° |
| 2026-05-03 20:27 | -25.73959 | -49.23552 | 6225 ft | 261 kts | 77° |
| 2026-05-03 20:27 | -25.73213 | -49.21761 | 6225 ft | 256 kts | 48° |
| 2026-05-03 20:27 | -25.71833 | -49.20558 | 6227 ft | 251 kts | 23° |
| 2026-05-03 20:28 | -25.70152 | -49.20149 | 6231 ft | 248 kts | 358° |
| 2026-05-03 20:28 | -25.68475 | -49.20601 | 6231 ft | 246 kts | 332° |
| 2026-05-03 20:28 | -25.67116 | -49.21709 | 6231 ft | 246 kts | 320° |
| 2026-05-03 20:28 | -25.65802 | -49.22923 | 6236 ft | 246 kts | 321° |
| 2026-05-03 20:29 | -25.64466 | -49.24111 | 6235 ft | 246 kts | 321° |
| 2026-05-03 20:29 | -25.63134 | -49.25304 | 6292 ft | 246 kts | 321° |
| 2026-05-03 20:29 | -25.61800 | -49.26501 | 6537 ft | 246 kts | 320° |
| 2026-05-03 20:29 | -25.60476 | -49.27687 | 6804 ft | 243 kts | 320° |
| 2026-05-03 20:30 | -25.59162 | -49.28862 | 7068 ft | 242 kts | 320° |
| 2026-05-03 20:30 | -25.57855 | -49.30030 | 7323 ft | 241 kts | 320° |
| 2026-05-03 20:30 | -25.56547 | -49.31201 | 7578 ft | 242 kts | 320° |
| 2026-05-03 20:30 | -25.55216 | -49.32392 | 7616 ft | 251 kts | 320° |
| 2026-05-03 20:31 | -25.53841 | -49.33619 | 7620 ft | 256 kts | 320° |
| 2026-05-03 20:31 | -25.52449 | -49.34861 | 7618 ft | 258 kts | 320° |
| 2026-05-03 20:31 | -25.51035 | -49.36116 | 7622 ft | 262 kts | 322° |
| 2026-05-03 20:31 | -25.49418 | -49.36979 | 7619 ft | 256 kts | 343° |
| 2026-05-03 20:32 | -25.47647 | -49.37189 | 7375 ft | 257 kts | 1° |
| 2026-05-03 20:32 | -25.45923 | -49.36735 | 7098 ft | 255 kts | 20° |
| 2026-05-03 20:32 | -25.44443 | -49.35690 | 6791 ft | 253 kts | 40° |
| 2026-05-03 20:32 | -25.43358 | -49.34179 | 6485 ft | 249 kts | 60° |
| 2026-05-03 20:33 | -25.42786 | -49.32407 | 6155 ft | 242 kts | 77° |
| 2026-05-03 20:33 | -25.42739 | -49.30605 | 5848 ft | 236 kts | 95° |
| 2026-05-03 20:33 | -25.43187 | -49.28885 | 5533 ft | 231 kts | 111° |
| 2026-05-03 20:33 | -25.44075 | -49.27421 | 5215 ft | 228 kts | 129° |
| 2026-05-03 20:34 | -25.45191 | -49.26168 | 4889 ft | 223 kts | 133° |
| 2026-05-03 20:34 | -25.46240 | -49.24991 | 4694 ft | 210 kts | 130° |
| 2026-05-03 20:34 | -25.47217 | -49.23896 | 4451 ft | 189 kts | 131° |
| 2026-05-03 20:34 | -25.48069 | -49.22945 | 4219 ft | 155 kts | 129° |
| 2026-05-03 20:35 | -25.48772 | -49.22141 | 4019 ft | 142 kts | 130° |
| 2026-05-03 20:35 | -25.49434 | -49.21409 | 3829 ft | 129 kts | 131° |
| 2026-05-03 20:35 | -25.50059 | -49.20709 | 3640 ft | 123 kts | 130° |
| 2026-05-03 20:35 | -25.50637 | -49.20052 | 3472 ft | 117 kts | 131° |
| 2026-05-03 20:36 | -25.51208 | -49.19415 | 3303 ft | 116 kts | 135° |
| 2026-05-03 20:36 | -25.51774 | -49.18799 | 3184 ft | 111 kts | 134° |
| 2026-05-03 20:36 | -25.52291 | -49.18206 | 3002 ft | 99 kts | 134° |
| 2026-05-03 20:36 | -25.52711 | -49.17736 | 2991 ft | 71 kts | 134° |
| 2026-05-03 20:37 | -25.52867 | -49.17561 | 2991 ft | 28 kts | 135° |
| 2026-05-03 20:37 | -25.53046 | -49.17356 | 2993 ft | 38 kts | 135° |
| 2026-05-03 20:37 | -25.53131 | -49.17282 | 2993 ft | 14 kts | 171° |
| 2026-05-03 20:37 | -25.53195 | -49.17335 | 2992 ft | 6 kts | 223° |
| 2026-05-03 20:38 | -25.53206 | -49.17398 | 2992 ft | 13 kts | 301° |
| 2026-05-03 20:38 | -25.53156 | -49.17456 | 2992 ft | 10 kts | 315° |
| 2026-05-03 20:38 | -25.53108 | -49.17511 | 2992 ft | 13 kts | 314° |
| 2026-05-03 20:38 | -25.53030 | -49.17596 | 2992 ft | 14 kts | 315° |
| 2026-05-03 20:39 | -25.52984 | -49.17654 | 2992 ft | 11 kts | 290° |
| 2026-05-03 20:39 | -25.52979 | -49.17748 | 2992 ft | 13 kts | 272° |
| 2026-05-03 20:39 | -25.52977 | -49.17828 | 2992 ft | 9 kts | 269° |
| 2026-05-03 20:39 | -25.52980 | -49.17896 | 2992 ft | 10 kts | 223° |
| 2026-05-03 20:40 | -25.53026 | -49.17944 | 2992 ft | 9 kts | 224° |
| 2026-05-03 20:40 | -25.53073 | -49.17996 | 2992 ft | 10 kts | 224° |
| 2026-05-03 20:40 | -25.53129 | -49.18055 | 2992 ft | 7 kts | 226° |
| 2026-05-03 20:40 | -25.53155 | -49.18072 | 2992 ft | 4 kts | 135° |
| 2026-05-03 20:41 | -25.53163 | -49.18056 | 2992 ft | 2 kts | 57° |
| 2026-05-03 20:41 | -25.53156 | -49.18052 | 2992 ft | 0 kts | 6° |